Aérodrome :
LOGIN :

S'inscrire | Disclaimer

   EN    FR    IT 

 










Légende :    VFR   VFR Marginal   IFR   IFR Intensif   IFR Très Intensif
Visi : 
Plafond : 
>= 8 km
>= 3000ft
5 à 8 km
1000 à 3000 ft
1500m à 5 km
500 à 1000 ft
800 à 1500m
200 à 500 ft
< 800m
< 200 ft
Symboles :   Orages  Brouillard  Fortes neiges  Fortes précipitations  Vent > 20 kt
SIGMETs :   Divers  Orages  Givrage  Turbulence  Onde Orograph.  Cendres Volcan.







- Altitude de l'aérodrome : 124 ft
- Code IATA : RNS
- Voir les cartes d'approche


LFRN - Rennes

DERNIER METAR :
  • 181900Z AUTO 22007KT 9999 -RADZ FEW017/// SCT039/// OVC049/// ///TCU 10/09 Q1007 TEMPO SHRA SCT040

METARs EXPIRÉS :
  • 181830Z AUTO 21007KT 9999 -RA BKN013 BKN018 OVC025 10/10 Q1007 TEMPO SHRA BKN030TCU
  • 181800Z AUTO 20011KT 9999 -RA BKN009 OVC017 10/09 Q1006 BECMG SCT040
  • 181730Z AUTO 18014KT 9999 -RA BKN011 OVC019 09/09 Q1006 BECMG SCT040
  • 181700Z AUTO 17013KT 9999 -RA SCT013 BKN026 BKN045 09/08 Q1006 TEMPO 3000 RA BKN008 BECMG 16015G25KT
  • 181630Z AUTO 17014KT 8000 RA SCT015/// BKN021/// BKN028/// ///TCU 08/08 Q1006 TEMPO 3000 RA BKN008 BECMG 16015G25KT

TAF AMD TAF LFRN
Valide du 18 à 18h jusqu'au 19 à 18h UTC


181813Z 1818/1918 17015G25KT 4000 RA BKN009
BECMG 1818/1820 22010KT 9999 NSW SCT040
PROB30
TEMPO 1820/1902 5000 SHRA BKN030TCU
TEMPO 1902/1918 19015G30KT 4000 SHRA BKN020CB
PROB30
TEMPO 1906/1918 TSRA
ATIS : +33 2 99 67 72 50
Pas de NOTAMs connus pour ce terrain.



MET'MAP, la Météo Aéronautique d'un coup d'oeil ! - Copyright ORBIFLY Décembre 2007 - Disclaimer

ORBIFLY MET'MAP TEAM :

Programmation & Développement : Alexandra Zaïnal
Conception & Développement : Baudouin d'Aumeries
Co-Programmation & Développement : Marc-Olivier Méhu
Soutien technique & logistique : Manuel Goepfert

Contact : metmap@orbifly.com




SOURCES & CREDITS :

   NOAA